Time;durP1;ratioP1;P1;durP2;ratioP2;P2;SDS_P1;SDS_P2;PMS_P1;PMS_P2;Temp;Humidity;BMP_temperature;BMP_pressure;BME280_temperature;BME280_humidity;BME280_pressure;Samples;Min_cycle;Max_cycle;Signal;HPM_P1;HPM_P2
2022/04/05 00:01:19;;;;;;;5.88;1.05;;;5.70;84.60;;;;;;5012055;28;20054;-43
2022/04/05 00:03:45;;;;;;;4.72;1.02;;;5.70;84.30;;;;;;5012044;28;20375;-43
2022/04/05 00:06:12;;;;;;;6.50;1.30;;;5.70;84.00;;;;;;5012187;28;20436;-43
2022/04/05 00:08:38;;;;;;;9.38;1.55;;;5.80;83.70;;;;;;5012016;28;20457;-44
2022/04/05 00:11:04;;;;;;;5.32;1.17;;;5.90;83.10;;;;;;5011627;28;20033;-46
2022/04/05 00:13:31;;;;;;;6.03;1.67;;;5.90;83.30;;;;;;5011809;28;20030;-44
2022/04/05 00:15:59;;;;;;;9.85;1.85;;;5.90;83.80;;;;;;5011464;28;20054;-42
2022/04/05 00:18:26;;;;;;;5.45;1.20;;;5.90;84.00;;;;;;5011734;28;20017;-44
2022/04/05 00:20:52;;;;;;;9.50;1.10;;;5.90;84.30;;;;;;5011745;28;20059;-43
2022/04/05 00:23:19;;;;;;;6.97;0.95;;;5.80;84.20;;;;;;5011467;28;20057;-44
2022/04/05 00:25:45;;;;;;;9.65;2.08;;;5.80;84.20;;;;;;5011424;28;20033;-45
2022/04/05 00:28:11;;;;;;;8.18;1.30;;;5.80;84.40;;;;;;5011939;28;20040;-43
2022/04/05 00:30:37;;;;;;;9.55;1.88;;;5.90;84.40;;;;;;5010386;28;20472;-44
2022/04/05 00:33:04;;;;;;;13.07;1.67;;;5.90;84.60;;;;;;4994148;28;20030;-44
2022/04/05 00:35:32;;;;;;;10.05;1.85;;;5.80;85.20;;;;;;5010236;28;20037;-42
2022/04/05 00:38:02;;;;;;;9.25;1.92;;;5.90;85.70;;;;;;5011588;28;20072;-43
2022/04/05 00:40:30;;;;;;;8.20;1.92;;;5.90;86.00;;;;;;5010256;28;20030;-44
2022/04/05 00:42:58;;;;;;;10.70;1.95;;;5.80;86.10;;;;;;5011824;28;20040;-44
2022/04/05 00:45:24;;;;;;;10.57;1.52;;;5.90;86.30;;;;;;5011415;28;20045;-42
2022/04/05 00:47:54;;;;;;;8.50;2.33;;;5.90;86.30;;;;;;5010335;28;20448;-45
2022/04/05 00:50:22;;;;;;;18.58;3.13;;;5.80;86.20;;;;;;5011452;28;20022;-44
2022/04/05 00:52:48;;;;;;;10.32;1.55;;;5.80;86.20;;;;;;5011405;28;20053;-44
2022/04/05 00:55:22;;;;;;;7.55;1.88;;;5.70;86.30;;;;;;5010065;28;20452;-42
2022/04/05 00:57:51;;;;;;;14.45;2.10;;;5.70;86.40;;;;;;5010946;28;20448;-43
2022/04/05 01:00:20;;;;;;;9.48;1.85;;;5.60;86.40;;;;;;5011288;28;20088;-45
2022/04/05 01:02:49;;;;;;;7.63;1.60;;;5.60;86.50;;;;;;5010960;28;20049;-43
2022/04/05 01:05:17;;;;;;;10.35;1.95;;;5.60;86.60;;;;;;5010408;28;20025;-45
2022/04/05 01:07:46;;;;;;;10.30;1.75;;;5.50;86.60;;;;;;5010335;28;20467;-46
2022/04/05 01:10:14;;;;;;;7.97;2.05;;;5.50;86.60;;;;;;5011247;28;20440;-47
2022/04/05 01:12:41;;;;;;;11.23;2.13;;;5.40;86.60;;;;;;5014180;28;20033;-43
2022/04/05 01:15:07;;;;;;;11.55;2.80;;;5.40;86.20;;;;;;5014785;28;20034;-44
2022/04/05 01:17:35;;;;;;;14.23;1.88;;;5.40;85.70;;;;;;5014398;28;20053;-44
2022/04/05 01:20:03;;;;;;;15.40;2.50;;;5.40;85.50;;;;;;5014981;28;20033;-45
2022/04/05 01:22:32;;;;;;;17.88;2.00;;;5.40;85.40;;;;;;5015317;28;20347;-42
2022/04/05 01:24:58;;;;;;;9.60;1.75;;;5.40;85.40;;;;;;5014039;28;20376;-42
2022/04/05 01:27:27;;;;;;;8.65;1.75;;;5.40;85.50;;;;;;5014678;28;20032;-44
2022/04/05 01:29:55;;;;;;;10.95;2.25;;;5.40;85.60;;;;;;5015071;28;20029;-46
2022/04/05 01:32:21;;;;;;;15.35;2.47;;;5.50;85.70;;;;;;5014853;28;20056;-43
2022/04/05 01:34:47;;;;;;;14.57;2.15;;;5.50;85.90;;;;;;5014783;28;20447;-43
2022/04/05 01:37:14;;;;;;;15.20;2.65;;;5.50;85.90;;;;;;5014719;28;20038;-44
2022/04/05 01:39:41;;;;;;;17.30;3.67;;;5.50;85.90;;;;;;5014676;28;20448;-44
2022/04/05 01:42:09;;;;;;;14.00;2.45;;;5.40;86.10;;;;;;5014317;28;20041;-43
2022/04/05 01:44:37;;;;;;;10.85;1.90;;;5.40;86.10;;;;;;5014676;28;20347;-44
2022/04/05 01:47:04;;;;;;;18.15;3.95;;;5.40;85.80;;;;;;5014450;28;20030;-42
2022/04/05 01:49:31;;;;;;;26.25;3.47;;;5.40;85.50;;;;;;5014493;28;20018;-44
2022/04/05 01:51:57;;;;;;;13.70;3.03;;;5.30;85.40;;;;;;5014864;28;20064;-46
2022/04/05 01:54:26;;;;;;;16.88;2.20;;;5.30;85.30;;;;;;5013199;28;20030;-44
2022/04/05 01:56:52;;;;;;;9.80;2.03;;;5.30;85.30;;;;;;5014298;28;20034;-46
2022/04/05 01:59:21;;;;;;;16.15;2.30;;;5.30;85.30;;;;;;5014068;28;20030;-45
2022/04/05 02:01:49;;;;;;;15.15;2.58;;;5.30;85.20;;;;;;5014299;28;20018;-43
2022/04/05 02:04:15;;;;;;;11.30;2.45;;;5.30;85.30;;;;;;5014174;28;20038;-43
2022/04/05 02:06:43;;;;;;;12.98;2.33;;;5.30;85.50;;;;;;5014275;28;20061;-43
2022/04/05 02:09:14;;;;;;;12.35;2.83;;;5.30;85.70;;;;;;5012909;28;20068;-42
2022/04/05 02:11:44;;;;;;;13.93;2.70;;;5.30;85.70;;;;;;5013881;28;20018;-46
2022/04/05 02:14:13;;;;;;;16.65;2.88;;;5.40;85.70;;;;;;5012837;28;20026;-43
2022/04/05 02:16:39;;;;;;;12.23;2.63;;;5.40;85.60;;;;;;5013575;28;20052;-44
2022/04/05 02:19:05;;;;;;;16.13;2.85;;;5.50;85.40;;;;;;5013742;28;20044;-45
2022/04/05 02:21:32;;;;;;;15.88;3.05;;;5.50;85.40;;;;;;5013878;28;20479;-44
2022/04/05 02:23:58;;;;;;;11.77;2.17;;;5.50;85.30;;;;;;5013114;28;20017;-47
2022/04/05 02:26:24;;;;;;;9.60;1.70;;;5.40;84.90;;;;;;5013495;28;20026;-44
2022/04/05 02:28:51;;;;;;;14.00;3.05;;;5.40;84.40;;;;;;5012608;28;20486;-42
2022/04/05 02:31:17;;;;;;;16.20;2.92;;;5.30;84.10;;;;;;5012425;28;20424;-46
2022/04/05 02:33:43;;;;;;;15.68;3.30;;;5.30;84.20;;;;;;5013435;28;20034;-44
2022/04/05 02:36:10;;;;;;;18.33;2.60;;;5.30;84.20;;;;;;5013482;28;20108;-42
2022/04/05 02:38:38;;;;;;;13.48;3.65;;;5.30;84.40;;;;;;5013603;28;20101;-44
2022/04/05 02:41:09;;;;;;;13.73;1.80;;;5.40;84.30;;;;;;5013582;28;20036;-47
2022/04/05 02:43:37;;;;;;;16.50;1.95;;;5.40;84.40;;;;;;5013308;28;20113;-45
2022/04/05 02:46:05;;;;;;;12.15;2.10;;;5.40;84.60;;;;;;5013071;28;20030;-43
2022/04/05 02:48:30;;;;;;;12.07;2.10;;;5.40;85.30;;;;;;5012296;28;20105;-44
2022/04/05 02:50:58;;;;;;;21.60;2.45;;;5.40;85.80;;;;;;5013101;28;20507;-45
2022/04/05 02:53:25;;;;;;;13.40;2.22;;;5.30;86.20;;;;;;5013020;28;20037;-42
2022/04/05 02:55:51;;;;;;;11.23;3.15;;;5.30;86.40;;;;;;5013300;28;20029;-46
2022/04/05 02:58:20;;;;;;;11.18;3.28;;;5.20;86.60;;;;;;5012876;28;20157;-47
2022/04/05 03:00:47;;;;;;;11.50;3.28;;;5.20;86.90;;;;;;5012920;28;20057;-43
2022/04/05 03:03:12;;;;;;;9.95;1.80;;;5.10;86.80;;;;;;5012888;28;20525;-43
2022/04/05 03:05:38;;;;;;;9.60;1.63;;;5.10;86.50;;;;;;5013148;28;20042;-41
2022/04/05 03:08:05;;;;;;;7.40;1.52;;;5.10;86.20;;;;;;5012678;28;20030;-42
2022/04/05 03:10:32;;;;;;;8.32;1.35;;;5.00;85.90;;;;;;5013064;28;20033;-43
2022/04/05 03:13:00;;;;;;;10.30;1.63;;;5.00;85.90;;;;;;5013211;28;20301;-43
2022/04/05 03:15:26;;;;;;;11.38;1.55;;;4.90;85.70;;;;;;5012770;28;20022;-42
2022/04/05 03:17:55;;;;;;;11.27;1.55;;;4.90;85.80;;;;;;5012318;28;20042;-45
2022/04/05 03:20:21;;;;;;;10.32;1.60;;;4.90;85.90;;;;;;5011617;28;20029;-46
2022/04/05 03:22:47;;;;;;;9.50;1.73;;;5.00;86.00;;;;;;5012148;28;20034;-43
2022/04/05 03:25:14;;;;;;;11.20;1.42;;;5.00;86.10;;;;;;5012511;28;20081;-42
2022/04/05 03:27:43;;;;;;;10.82;1.70;;;5.00;86.30;;;;;;5012954;28;20030;-44
2022/04/05 03:30:11;;;;;;;17.63;2.58;;;5.00;86.40;;;;;;5012329;28;20044;-46
2022/04/05 03:32:40;;;;;;;11.73;3.35;;;5.00;86.50;;;;;;5012304;28;20044;-50
2022/04/05 03:35:06;;;;;;;6.60;1.23;;;5.10;86.90;;;;;;5011395;28;20048;-50
2022/04/05 03:37:33;;;;;;;13.68;2.42;;;5.10;87.10;;;;;;5012196;28;20485;-48
2022/04/05 03:40:00;;;;;;;6.07;1.27;;;5.00;87.30;;;;;;5011267;28;20419;-49
2022/04/05 03:42:26;;;;;;;8.52;1.60;;;5.00;87.30;;;;;;5012352;28;20022;-47
2022/04/05 03:44:52;;;;;;;10.25;2.65;;;5.00;87.40;;;;;;5012109;28;20175;-49
2022/04/05 03:47:19;;;;;;;13.27;2.85;;;4.90;87.40;;;;;;5012583;28;20029;-50
2022/04/05 03:49:44;;;;;;;15.30;2.25;;;4.90;87.40;;;;;;5012549;28;20026;-50
2022/04/05 03:52:10;;;;;;;12.20;1.88;;;4.90;87.30;;;;;;5012208;28;20033;-48
2022/04/05 03:54:36;;;;;;;8.63;1.70;;;4.90;87.10;;;;;;5012237;28;20037;-47
2022/04/05 03:57:03;;;;;;;16.83;4.05;;;4.90;87.10;;;;;;5011980;28;20037;-46
2022/04/05 03:59:29;;;;;;;7.63;1.80;;;4.80;87.10;;;;;;5010943;28;20022;-46
2022/04/05 04:01:55;;;;;;;11.57;2.20;;;4.80;87.10;;;;;;5011746;28;20018;-46
2022/04/05 04:04:21;;;;;;;9.20;1.45;;;4.80;87.20;;;;;;5012017;28;20423;-46
2022/04/05 04:06:48;;;;;;;21.25;3.55;;;4.80;87.30;;;;;;5011731;28;20062;-45
2022/04/05 04:09:13;;;;;;;12.90;2.28;;;4.80;87.30;;;;;;5010780;28;20022;-46
2022/04/05 04:11:44;;;;;;;10.98;2.10;;;4.70;87.30;;;;;;5010840;28;20092;-46
2022/04/05 04:14:12;;;;;;;8.63;1.63;;;4.80;87.50;;;;;;5010626;28;20378;-45
2022/04/05 04:16:38;;;;;;;9.02;2.10;;;4.80;87.30;;;;;;5010323;28;20141;-46
2022/04/05 04:19:05;;;;;;;16.25;2.40;;;4.90;87.20;;;;;;5010493;28;20101;-50
2022/04/05 04:21:31;;;;;;;17.15;4.88;;;4.90;87.10;;;;;;5011587;28;20022;-45
2022/04/05 04:24:00;;;;;;;17.67;2.95;;;4.90;86.90;;;;;;5011874;28;20039;-44
2022/04/05 04:26:27;;;;;;;12.43;2.03;;;5.00;86.70;;;;;;5010520;28;20030;-44
2022/04/05 04:28:57;;;;;;;10.38;1.85;;;5.00;86.60;;;;;;5011755;28;20167;-48
2022/04/05 04:31:24;;;;;;;;;;;5.00;86.60;;;;;;4995004;28;20038;-46
2022/04/05 04:33:50;;;;;;;12.38;2.17;;;5.00;86.50;;;;;;5011901;28;19905;-44
2022/04/05 04:36:17;;;;;;;12.10;2.00;;;5.00;86.50;;;;;;5010232;28;20092;-46
2022/04/05 04:38:45;;;;;;;12.23;3.20;;;5.10;86.60;;;;;;5011348;28;20363;-45
2022/04/05 04:41:11;;;;;;;18.50;3.63;;;5.00;86.20;;;;;;5011207;28;20029;-44
2022/04/05 04:43:37;;;;;;;13.38;3.67;;;5.00;86.20;;;;;;5011240;28;20026;-46
2022/04/05 04:46:04;;;;;;;9.15;1.90;;;5.10;86.20;;;;;;5010961;28;20040;-46
2022/04/05 04:48:30;;;;;;;12.30;2.47;;;5.10;86.00;;;;;;5011439;28;20041;-46
2022/04/05 04:50:56;;;;;;;11.48;2.95;;;5.10;86.10;;;;;;5010214;28;20026;-43
2022/04/05 04:53:24;;;;;;;11.05;2.47;;;5.10;86.00;;;;;;5010202;28;20114;-43
2022/04/05 04:55:49;;;;;;;9.27;2.05;;;5.10;86.00;;;;;;5011636;28;20092;-44
2022/04/05 04:58:15;;;;;;;10.98;2.40;;;5.10;86.00;;;;;;5011235;28;20413;-44
2022/04/05 05:00:42;;;;;;;9.05;2.38;;;5.10;86.10;;;;;;5011295;28;20038;-45
2022/04/05 05:03:08;;;;;;;8.75;1.88;;;5.10;86.10;;;;;;5010004;28;20049;-43
2022/04/05 05:05:34;;;;;;;9.50;2.17;;;5.10;86.20;;;;;;5010054;28;20026;-43
2022/04/05 05:08:01;;;;;;;11.32;2.28;;;5.10;86.20;;;;;;5011507;28;20343;-43
2022/04/05 05:10:26;;;;;;;11.23;2.65;;;5.10;86.30;;;;;;5011126;28;20033;-43
2022/04/05 05:12:52;;;;;;;10.27;2.38;;;5.10;86.40;;;;;;5010069;28;20121;-48
2022/04/05 05:15:21;;;;;;;23.30;3.15;;;5.20;86.50;;;;;;5010760;28;20069;-46
2022/04/05 05:17:48;;;;;;;12.02;2.35;;;5.10;86.60;;;;;;5010817;28;20119;-44
2022/04/05 05:20:17;;;;;;;18.95;2.80;;;5.10;86.60;;;;;;5009897;28;20486;-43
2022/04/05 05:22:43;;;;;;;;;;;5.10;86.60;;;;;;5011253;28;20113;-47
2022/04/05 05:25:10;;;;;;;13.45;2.35;;;5.20;86.60;;;;;;5011086;28;19988;-43
2022/04/05 05:27:37;;;;;;;13.23;3.50;;;5.20;86.60;;;;;;5010832;28;20037;-47
2022/04/05 05:30:07;;;;;;;15.75;2.80;;;5.20;86.70;;;;;;5011263;28;20365;-46
2022/04/05 05:32:42;;;;;;;15.80;2.03;;;5.30;86.60;;;;;;5010995;28;20344;-44
2022/04/05 05:35:08;;;;;;;7.93;1.73;;;5.30;86.50;;;;;;5010976;28;20061;-43
2022/04/05 05:37:35;;;;;;;12.43;2.08;;;5.40;86.30;;;;;;5010898;28;20022;-43
2022/04/05 05:40:01;;;;;;;15.77;2.60;;;5.40;86.00;;;;;;5010606;28;20022;-44
2022/04/05 05:42:27;;;;;;;10.27;2.90;;;5.40;85.60;;;;;;5010866;28;20029;-44
2022/04/05 05:44:54;;;;;;;11.50;1.63;;;5.40;85.50;;;;;;5010620;28;20351;-44
2022/04/05 05:47:19;;;;;;;10.60;2.33;;;5.50;85.30;;;;;;5009565;28;20057;-42
2022/04/05 05:49:46;;;;;;;11.25;2.65;;;5.40;85.10;;;;;;5009556;28;20064;-42
2022/04/05 05:52:13;;;;;;;8.45;2.75;;;5.50;84.70;;;;;;5009649;28;20037;-42
2022/04/05 05:54:39;;;;;;;8.07;1.80;;;5.50;84.80;;;;;;5010495;28;20512;-41
2022/04/05 05:57:06;;;;;;;13.13;2.25;;;5.60;84.60;;;;;;5010803;28;20042;-45
2022/04/05 05:59:34;;;;;;;12.05;2.65;;;5.60;84.50;;;;;;5012937;28;20030;-46
2022/04/05 06:02:04;;;;;;;14.98;2.33;;;5.70;84.80;;;;;;5014144;28;20097;-42
2022/04/05 06:04:29;;;;;;;8.82;1.75;;;5.80;84.90;;;;;;5014481;28;20022;-44
2022/04/05 06:06:55;;;;;;;9.15;1.85;;;5.80;84.70;;;;;;5013801;28;20344;-43
2022/04/05 06:09:22;;;;;;;7.90;1.90;;;5.90;84.70;;;;;;5014186;28;20527;-43
2022/04/05 06:11:47;;;;;;;13.70;1.80;;;5.90;84.80;;;;;;5013642;28;20026;-43
2022/04/05 06:14:13;;;;;;;25.23;2.60;;;5.90;84.70;;;;;;5012884;28;20474;-43
2022/04/05 06:16:40;;;;;;;12.05;2.03;;;6.00;84.40;;;;;;5013565;28;20064;-42
2022/04/05 06:19:05;;;;;;;8.75;2.58;;;6.00;84.50;;;;;;5013712;28;20049;-43
2022/04/05 06:21:31;;;;;;;13.25;2.10;;;6.20;84.50;;;;;;5014214;28;20021;-43
2022/04/05 06:23:58;;;;;;;7.80;1.15;;;6.20;84.40;;;;;;5013800;28;20033;-43
2022/04/05 06:26:24;;;;;;;7.45;1.73;;;6.30;84.30;;;;;;5013732;28;20034;-42
2022/04/05 06:28:50;;;;;;;8.18;1.80;;;6.40;84.00;;;;;;5013781;28;20083;-42
2022/04/05 06:31:17;;;;;;;7.85;2.35;;;6.40;83.60;;;;;;5013417;28;20026;-42
2022/04/05 06:33:42;;;;;;;7.55;1.92;;;6.40;83.20;;;;;;5013794;28;20044;-41
2022/04/05 06:36:08;;;;;;;5.80;1.08;;;6.40;83.10;;;;;;5013255;28;20030;-42
2022/04/05 06:38:34;;;;;;;7.20;1.30;;;6.40;83.00;;;;;;5013441;28;20030;-42
2022/04/05 06:41:00;;;;;;;3.65;1.02;;;6.40;83.10;;;;;;5013533;28;20033;-44
2022/04/05 06:43:28;;;;;;;4.90;1.08;;;6.30;83.10;;;;;;5013039;28;20025;-42
2022/04/05 06:45:56;;;;;;;5.75;1.00;;;6.30;82.90;;;;;;5013494;28;20409;-42
2022/04/05 06:48:23;;;;;;;7.85;1.48;;;6.40;83.00;;;;;;5012998;28;20465;-43
2022/04/05 06:50:50;;;;;;;5.20;1.13;;;6.40;82.70;;;;;;5012276;28;20036;-45
2022/04/05 06:53:17;;;;;;;9.02;1.30;;;6.40;83.10;;;;;;5013154;28;20026;-42
2022/04/05 06:55:43;;;;;;;5.93;1.23;;;6.50;82.70;;;;;;5013003;28;20109;-46
2022/04/05 06:58:10;;;;;;;9.05;1.27;;;6.50;82.20;;;;;;5010189;28;20065;-43
2022/04/05 07:00:37;;;;;;;4.00;1.00;;;6.60;82.40;;;;;;5011388;28;20022;-43
2022/04/05 07:03:04;;;;;;;6.63;1.33;;;6.60;82.30;;;;;;5012564;28;20029;-45
2022/04/05 07:05:30;;;;;;;8.73;1.60;;;6.70;82.00;;;;;;5012512;28;20101;-44
2022/04/05 07:07:56;;;;;;;8.65;1.30;;;6.90;81.90;;;;;;5011846;28;20104;-43
2022/04/05 07:10:23;;;;;;;6.85;1.35;;;6.90;81.60;;;;;;5012264;28;20029;-41
2022/04/05 07:12:49;;;;;;;12.93;2.42;;;7.00;81.60;;;;;;5012250;28;20029;-38
2022/04/05 07:15:16;;;;;;;8.80;1.50;;;7.10;81.40;;;;;;5012191;28;20026;-39
2022/04/05 07:17:44;;;;;;;11.88;2.97;;;7.40;81.20;;;;;;5010587;28;20057;-43
2022/04/05 07:20:10;;;;;;;5.10;1.25;;;7.40;80.80;;;;;;5012015;28;20088;-43
2022/04/05 07:22:43;;;;;;;7.18;1.83;;;7.50;81.10;;;;;;5011660;28;20033;-39
2022/04/05 07:25:10;;;;;;;8.82;2.55;;;7.90;80.40;;;;;;5011006;28;20030;-39
2022/04/05 07:27:38;;;;;;;8.85;3.45;;;7.90;79.90;;;;;;5011854;28;20435;-42
2022/04/05 07:30:05;;;;;;;3.92;1.20;;;7.90;80.40;;;;;;5011724;28;20033;-39
2022/04/05 07:32:41;;;;;;;9.55;1.40;;;8.10;79.50;;;;;;5012075;28;20022;-45
2022/04/05 07:35:11;;;;;;;8.90;2.08;;;8.00;78.90;;;;;;5011686;28;20030;-42
2022/04/05 07:37:39;;;;;;;12.90;1.88;;;7.90;79.00;;;;;;5011622;28;20103;-42
2022/04/05 07:40:11;;;;;;;4.85;1.20;;;7.80;79.30;;;;;;5011603;28;20070;-42
2022/04/05 07:42:45;;;;;;;8.43;1.92;;;7.70;79.60;;;;;;5010926;28;20037;-43
2022/04/05 07:45:14;;;;;;;9.48;1.88;;;7.80;79.80;;;;;;5011475;28;20030;-45
2022/04/05 07:47:40;;;;;;;6.38;1.92;;;7.70;79.40;;;;;;5011693;28;20061;-43
2022/04/05 07:50:08;;;;;;;12.43;1.52;;;7.70;79.50;;;;;;5011496;28;20435;-42
2022/04/05 07:52:34;;;;;;;9.18;1.60;;;7.70;80.00;;;;;;4994215;28;20049;-42
2022/04/05 07:55:00;;;;;;;10.35;1.92;;;7.60;79.70;;;;;;5010233;28;20037;-40
2022/04/05 07:57:28;;;;;;;8.93;1.35;;;7.60;80.60;;;;;;5011401;28;20034;-41
2022/04/05 07:59:53;;;;;;;11.90;1.95;;;7.70;80.60;;;;;;5011389;28;20101;-43
2022/04/05 08:02:19;;;;;;;10.43;1.55;;;7.60;79.30;;;;;;5011231;28;20127;-43
2022/04/05 08:04:46;;;;;;;5.70;1.45;;;7.40;79.00;;;;;;5011330;28;20449;-43
2022/04/05 08:07:11;;;;;;;9.38;1.38;;;7.30;79.60;;;;;;5011046;28;20053;-43
2022/04/05 08:09:38;;;;;;;7.50;1.95;;;7.40;79.10;;;;;;5010327;28;20123;-42
2022/04/05 08:12:04;;;;;;;10.63;2.17;;;7.20;79.30;;;;;;5011212;28;20050;-43
2022/04/05 08:14:32;;;;;;;11.02;2.20;;;7.20;79.70;;;;;;5011075;28;20041;-42
2022/04/05 08:17:01;;;;;;;6.03;1.30;;;7.10;79.40;;;;;;5009777;28;20129;-43
2022/04/05 08:19:27;;;;;;;14.83;2.13;;;7.30;79.50;;;;;;5010972;28;20022;-43
2022/04/05 08:21:54;;;;;;;9.32;1.52;;;7.20;79.40;;;;;;5010444;28;20535;-44
2022/04/05 08:24:21;;;;;;;6.85;1.17;;;7.30;79.90;;;;;;5009788;28;20026;-42
2022/04/05 08:26:51;;;;;;;9.27;1.73;;;7.40;80.70;;;;;;5010608;28;20041;-43
2022/04/05 08:29:18;;;;;;;6.00;1.95;;;7.40;81.00;;;;;;5010937;28;20041;-46
2022/04/05 08:31:43;;;;;;;8.90;1.42;;;7.30;81.10;;;;;;5011053;28;20052;-41
2022/04/05 08:34:11;;;;;;;5.13;1.02;;;7.40;81.50;;;;;;5010912;28;20422;-45
2022/04/05 08:36:38;;;;;;;9.35;1.13;;;7.30;81.50;;;;;;5010575;28;20482;-40
2022/04/05 08:39:04;;;;;;;6.55;1.33;;;7.50;81.10;;;;;;5011171;28;20037;-43
2022/04/05 08:41:35;;;;;;;6.60;1.42;;;7.70;81.70;;;;;;5009678;28;20367;-40
2022/04/05 08:44:02;;;;;;;8.07;1.60;;;8.00;81.50;;;;;;5009740;28;20033;-40
2022/04/05 08:46:32;;;;;;;5.13;1.30;;;8.30;81.10;;;;;;5009704;28;20089;-41
2022/04/05 08:49:01;;;;;;;8.25;1.38;;;8.40;80.40;;;;;;5010672;28;20032;-40
2022/04/05 08:51:26;;;;;;;8.18;1.52;;;8.50;80.40;;;;;;4993496;28;20072;-43
2022/04/05 08:53:54;;;;;;;7.18;1.20;;;8.50;79.50;;;;;;5011026;28;20040;-42
2022/04/05 08:56:26;;;;;;;5.57;1.25;;;8.60;79.40;;;;;;5009747;28;20040;-44
2022/04/05 08:58:55;;;;;;;3.85;1.20;;;8.70;79.30;;;;;;5010794;28;20021;-41
2022/04/05 09:01:22;;;;;;;8.23;1.05;;;8.70;78.80;;;;;;5011103;28;20042;-44
2022/04/05 09:03:48;;;;;;;9.35;1.42;;;8.90;78.70;;;;;;5010795;28;20018;-42
2022/04/05 09:06:36;;;;;;;11.27;5.18;;;8.90;78.60;;;;;;5010551;28;20034;-43
2022/04/05 09:09:17;;;;;;;5.75;1.10;;;8.90;78.30;;;;;;5010584;28;20029;-41
2022/04/05 09:11:52;;;;;;;7.28;1.17;;;8.60;77.40;;;;;;5010747;28;20026;-45
2022/04/05 09:14:30;;;;;;;7.97;1.50;;;8.50;78.90;;;;;;5010809;28;20057;-43
2022/04/05 09:17:15;;;;;;;7.55;1.20;;;8.40;78.80;;;;;;5010344;28;20046;-41
2022/04/05 09:19:51;;;;;;;8.27;1.55;;;8.50;79.20;;;;;;5010647;28;20052;-43
2022/04/05 09:22:32;;;;;;;9.18;1.88;;;8.50;79.00;;;;;;5010969;28;20459;-43
2022/04/05 09:25:04;;;;;;;9.00;1.58;;;8.40;78.80;;;;;;5010515;28;20156;-43
2022/04/05 09:27:53;;;;;;;6.82;1.08;;;8.40;79.20;;;;;;5010681;28;20113;-41
2022/04/05 09:30:27;;;;;;;5.53;1.25;;;8.20;78.70;;;;;;5009246;28;20022;-42
2022/04/05 09:32:55;;;;;;;7.57;1.50;;;8.10;78.60;;;;;;5012231;28;20395;-42
2022/04/05 09:35:40;;;;;;;8.10;1.60;;;8.00;80.00;;;;;;5014084;28;20025;-40
2022/04/05 09:38:15;;;;;;;8.40;1.75;;;7.90;80.20;;;;;;5013166;28;20029;-41
2022/04/05 09:40:43;;;;;;;10.00;2.10;;;7.90;80.60;;;;;;5012853;28;20084;-44
2022/04/05 09:43:15;;;;;;;7.70;1.65;;;7.90;81.10;;;;;;5014330;28;20348;-49
2022/04/05 09:45:49;;;;;;;11.82;1.70;;;7.80;81.60;;;;;;5013824;28;20426;-50
2022/04/05 09:48:19;;;;;;;7.32;1.58;;;7.80;82.40;;;;;;5013650;28;20037;-45
2022/04/05 09:51:11;;;;;;;6.57;1.65;;;7.80;82.30;;;;;;5013417;28;20025;-46
2022/04/05 09:53:54;;;;;;;10.02;1.50;;;7.70;82.70;;;;;;5013606;28;20053;-45
2022/04/05 09:56:30;;;;;;;6.40;1.27;;;7.80;83.40;;;;;;5013547;28;20026;-50
2022/04/05 09:59:02;;;;;;;7.15;1.60;;;7.80;83.20;;;;;;5013737;28;20022;-46
2022/04/05 10:01:33;;;;;;;8.40;3.15;;;7.90;83.80;;;;;;5013928;28;20411;-46
2022/04/05 10:04:11;;;;;;;4.40;1.35;;;7.90;83.70;;;;;;5013621;28;20026;-48
2022/04/05 10:06:43;;;;;;;14.30;1.95;;;7.80;83.10;;;;;;5013644;28;20451;-50
2022/04/05 10:09:10;;;;;;;13.95;3.25;;;7.90;83.40;;;;;;5013776;28;20022;-48
2022/04/05 10:11:39;;;;;;;10.10;2.83;;;7.90;83.50;;;;;;5012369;28;20477;-47
2022/04/05 10:14:07;;;;;;;6.82;1.50;;;7.80;82.90;;;;;;5013587;28;20061;-50
2022/04/05 10:16:35;;;;;;;12.70;1.88;;;7.70;82.70;;;;;;5012971;28;20064;-49
2022/04/05 10:19:04;;;;;;;12.20;2.28;;;7.60;83.10;;;;;;5013433;28;20018;-50
2022/04/05 10:21:34;;;;;;;8.50;1.77;;;7.60;84.00;;;;;;5013322;28;20095;-50
2022/04/05 10:24:00;;;;;;;11.50;1.88;;;7.70;84.40;;;;;;5012218;28;20041;-50
2022/04/05 10:26:39;;;;;;;16.60;2.20;;;7.60;84.70;;;;;;4996052;28;20056;-55
2022/04/05 10:29:08;;;;;;;10.50;2.20;;;7.70;84.80;;;;;;5011921;28;20034;-55
2022/04/05 10:32:00;;;;;;;9.45;1.67;;;7.80;84.90;;;;;;5013467;28;20055;-52
2022/04/05 10:34:45;;;;;;;15.07;3.42;;;7.90;85.00;;;;;;5011975;28;20444;-54
2022/04/05 10:37:28;;;;;;;11.35;3.25;;;7.90;84.80;;;;;;5011972;28;20442;-55
2022/04/05 10:39:56;;;;;;;13.85;3.17;;;7.90;85.00;;;;;;5013107;28;20466;-59
2022/04/05 10:42:25;;;;;;;12.80;2.38;;;7.90;84.80;;;;;;5013127;28;20105;-60
2022/04/05 10:44:54;;;;;;;10.52;2.20;;;7.70;84.60;;;;;;5012744;28;20045;-60
2022/04/05 10:47:23;;;;;;;7.07;2.53;;;7.60;85.30;;;;;;5011897;28;20030;-59
2022/04/05 10:49:51;;;;;;;8.32;1.70;;;7.50;85.10;;;;;;5012929;28;20433;-59
2022/04/05 10:52:31;;;;;;;7.93;2.08;;;7.40;85.60;;;;;;5011717;28;20371;-60
2022/04/05 10:55:04;;;;;;;7.68;1.63;;;7.40;85.90;;;;;;5012916;28;20053;-60
2022/04/05 10:57:48;;;;;;;5.35;1.08;;;7.40;85.80;;;;;;5012730;28;20033;-60
2022/04/05 11:00:33;;;;;;;5.90;1.33;;;7.20;85.50;;;;;;5012416;28;20022;-61
2022/04/05 11:03:17;;;;;;;5.60;1.52;;;7.30;85.60;;;;;;5012688;28;20014;-59
2022/04/05 11:05:43;;;;;;;8.13;1.42;;;7.20;85.70;;;;;;5012646;28;20076;-59
2022/04/05 11:08:28;;;;;;;6.10;2.45;;;7.20;85.70;;;;;;5012604;28;20025;-59
2022/04/05 11:11:01;;;;;;;7.07;1.40;;;7.40;85.80;;;;;;5012227;28;20036;-59
2022/04/05 11:13:50;;;;;;;11.15;1.73;;;7.40;85.30;;;;;;5012843;28;20022;-60
2022/04/05 11:16:17;;;;;;;5.68;1.42;;;7.50;85.60;;;;;;5012208;28;20133;-59
2022/04/05 11:18:45;;;;;;;9.73;1.75;;;7.50;85.50;;;;;;5012414;28;20028;-59
2022/04/05 11:21:11;;;;;;;4.45;1.42;;;7.70;86.00;;;;;;5012277;28;20378;-58
2022/04/05 11:23:44;;;;;;;6.43;1.60;;;7.90;85.90;;;;;;5012355;28;20374;-58
2022/04/05 11:26:35;;;;;;;8.95;1.73;;;8.00;86.00;;;;;;5012325;28;20519;-57
2022/04/05 11:29:23;;;;;;;9.57;3.40;;;8.20;85.80;;;;;;5011195;28;20113;-55
2022/04/05 11:32:08;;;;;;;9.05;2.42;;;8.20;85.20;;;;;;5012199;28;20105;-54
2022/04/05 11:34:37;;;;;;;8.70;1.63;;;8.40;85.90;;;;;;5011400;28;20029;-54
2022/04/05 11:37:06;;;;;;;12.35;3.00;;;8.60;85.30;;;;;;5012067;28;20062;-53
2022/04/05 11:39:37;;;;;;;9.13;2.07;;;8.50;84.60;;;;;;5012097;28;20040;-52
2022/04/05 11:42:06;;;;;;;7.10;1.20;;;8.50;84.50;;;;;;5011940;28;20516;-52
2022/04/05 11:44:33;;;;;;;5.47;1.70;;;8.50;83.70;;;;;;5012161;28;20038;-55
2022/04/05 11:47:00;;;;;;;7.97;2.35;;;8.50;84.50;;;;;;5012067;28;20044;-48
2022/04/05 11:49:40;;;;;;;7.43;1.55;;;8.40;83.80;;;;;;5010785;28;20050;-50
2022/04/05 11:52:10;;;;;;;6.05;0.95;;;8.50;84.30;;;;;;5011349;28;20025;-51
2022/04/05 11:57:23;;;;;;;6.35;1.63;;;8.90;84.20;;;;;;5011541;28;20183;-48
2022/04/05 12:00:05;;;;;;;8.75;2.03;;;9.00;83.90;;;;;;5011645;28;20026;-46
2022/04/05 12:02:31;;;;;;;5.85;1.13;;;9.00;83.60;;;;;;5010550;28;20030;-47
2022/04/05 12:04:58;;;;;;;8.65;1.50;;;9.20;83.30;;;;;;5011377;28;20022;-47
2022/04/05 12:07:24;;;;;;;7.03;1.23;;;8.90;81.40;;;;;;5011897;28;20026;-43
2022/04/05 12:09:50;;;;;;;5.80;1.33;;;8.70;81.80;;;;;;5011588;28;20333;-43
2022/04/05 12:12:19;;;;;;;5.47;1.73;;;8.60;82.40;;;;;;5011582;28;20033;-46
2022/04/05 12:14:45;;;;;;;5.17;1.60;;;8.40;82.60;;;;;;5011267;28;20080;-43
2022/04/05 12:17:12;;;;;;;5.85;1.80;;;8.30;83.10;;;;;;5010806;28;20058;-45
2022/04/05 12:19:40;;;;;;;6.25;1.35;;;8.10;83.80;;;;;;5010916;28;20022;-51
2022/04/05 12:22:07;;;;;;;5.22;1.00;;;8.10;83.90;;;;;;5011287;28;20092;-54
2022/04/05 12:24:42;;;;;;;5.38;1.38;;;7.90;84.40;;;;;;5011246;28;20038;-52
2022/04/05 12:27:12;;;;;;;8.90;1.42;;;7.90;84.50;;;;;;5010053;28;20026;-55
2022/04/05 12:29:39;;;;;;;;;;;7.90;84.80;;;;;;5010531;28;20484;-57
2022/04/05 12:32:08;;;;;;;5.55;1.50;;;7.90;85.00;;;;;;5011017;28;20335;-60
2022/04/05 12:34:34;;;;;;;7.30;1.52;;;7.90;85.40;;;;;;5011074;28;20030;-60
2022/04/05 12:37:02;;;;;;;6.07;1.35;;;7.90;85.90;;;;;;5010569;28;20045;-59
2022/04/05 12:39:33;;;;;;;6.95;1.20;;;8.00;85.80;;;;;;5010924;28;20022;-56
2022/04/05 12:42:09;;;;;;;3.65;1.35;;;8.10;85.80;;;;;;5011046;28;20025;-57
2022/04/05 12:44:38;;;;;;;9.05;3.90;;;8.20;86.00;;;;;;5010601;28;20022;-54
2022/04/05 12:47:14;;;;;;;5.95;1.33;;;8.20;85.80;;;;;;5011067;28;20021;-58
2022/04/05 12:50:01;;;;;;;8.85;2.33;;;8.00;85.30;;;;;;4994510;28;20038;-58
2022/04/05 12:52:29;;;;;;;7.90;1.50;;;7.90;85.20;;;;;;5009801;28;20053;-54
2022/04/05 12:55:18;;;;;;;14.88;3.03;;;7.90;85.10;;;;;;5011026;28;20053;-57
2022/04/05 12:57:50;;;;;;;8.93;1.70;;;7.90;85.30;;;;;;5011080;28;20566;-56
2022/04/05 13:00:28;;;;;;;13.02;1.83;;;7.90;85.80;;;;;;5009763;28;20425;-57
2022/04/05 13:03:03;;;;;;;6.50;2.67;;;7.90;86.10;;;;;;5011056;28;20087;-54
2022/04/05 13:08:39;;;;;;;5.72;1.50;;;8.20;86.30;;;;;;5015133;28;20088;-53